Weather at Cambridge Medical Center Heliport

Public forecast

Using degrees Fahrenheit for public forecast. Weather courtesy of forecast.io.

Closest aviation weather report (METAR) to Cambridge Medical Center Heliport

Closest report is Cambridge Municipal Airport, 1.5 nm (2.7 km) WSW.

2024/07/25 10:15 (retrieved 19 minutes ago)

KCBG 251015Z AUTO 00000KT 10SM CLR 11/08 A3024 RMK AO2

Closest aviation forecast (TAF) to Cambridge Medical Center Heliport

Closest forecast is Saint Cloud Regional Airport, 34.9 nm (64.5 km) W.

2024/07/25 06:22 (retrieved 4 hours ago)

TAF KSTC 250520Z 2506/2606 11003KT P6SM FEW200 FM251400 15008KT P6SM SKC FM260000 14005KT P6SM SKC